Time;durP1;ratioP1;P1;durP2;ratioP2;P2;SDS_P1;SDS_P2;PMS_P1;PMS_P2;Temp;Humidity;BMP_temperature;BMP_pressure;BME280_temperature;BME280_humidity;BME280_pressure;Samples;Min_cycle;Max_cycle;Signal;HPM_P1;HPM_P2
2023/11/23 00:00:27;;;;;;;20.17;11.33;;;;;;;-1.87;66.32;100941.84;5109898;27;20203;-69
2023/11/23 00:02:54;;;;;;;19.13;11.07;;;;;;;-1.86;66.64;100930.94;5114995;27;20215;-69
2023/11/23 00:05:24;;;;;;;19.37;10.50;;;;;;;-1.89;66.71;100923.22;5114355;27;20249;-62
2023/11/23 00:07:52;;;;;;;16.77;10.03;;;;;;;-1.92;67.06;100905.38;5116034;27;20204;-66
2023/11/23 00:10:20;;;;;;;20.23;11.77;;;;;;;-1.95;66.66;100901.91;5113882;27;20215;-67
2023/11/23 00:12:48;;;;;;;19.77;11.47;;;;;;;-1.93;67.39;100901.97;5118194;27;20605;-69
2023/11/23 00:15:19;;;;;;;20.60;10.70;;;;;;;-1.93;66.61;100889.34;5112885;27;20241;-68
2023/11/23 00:17:47;;;;;;;16.43;10.43;;;;;;;-1.88;67.69;100874.44;5115892;27;20685;-71
2023/11/23 00:20:15;;;;;;;21.63;12.03;;;;;;;-1.95;67.23;100858.13;5118861;27;20204;-67
2023/11/23 00:22:46;;;;;;;20.13;11.43;;;;;;;-1.93;67.27;100860.72;5106087;27;20667;-71
2023/11/23 00:25:14;;;;;;;15.80;9.90;;;;;;;-1.95;68.25;100866.56;5113724;27;20200;-67
2023/11/23 00:27:42;;;;;;;18.47;11.23;;;;;;;-1.93;67.88;100870.81;5112930;28;20667;-66
2023/11/23 00:30:11;;;;;;;21.70;11.90;;;;;;;-1.93;67.73;100860.72;5118382;27;20560;-68
2023/11/23 00:32:41;;;;;;;18.90;10.77;;;;;;;-1.91;68.40;100866.69;5105828;28;20663;-67
2023/11/23 00:35:09;;;;;;;24.40;13.07;;;;;;;-1.88;67.70;100864.31;5107365;27;20211;-68
2023/11/23 00:37:37;;;;;;;23.23;12.40;;;;;;;-1.89;67.53;100858.41;5113026;28;20231;-67
2023/11/23 00:40:07;;;;;;;21.83;10.63;;;;;;;-1.84;67.94;100856.13;5115568;27;20203;-69
2023/11/23 00:42:34;;;;;;;19.77;10.80;;;;;;;-1.86;67.83;100840.03;5110497;27;20204;-70
2023/11/23 00:45:02;;;;;;;20.80;11.57;;;;;;;-1.89;67.72;100834.81;5108280;27;20216;-66
2023/11/23 00:47:32;;;;;;;20.63;11.17;;;;;;;-1.93;68.65;100840.50;5114325;27;20629;-65
2023/11/23 00:50:03;;;;;;;21.80;12.57;;;;;;;-1.92;67.79;100820.38;5106016;27;20210;-69
2023/11/23 00:52:31;;;;;;;19.17;11.13;;;;;;;-1.88;68.04;100823.91;5104313;27;20725;-66
2023/11/23 00:55:04;;;;;;;17.93;10.47;;;;;;;-1.97;67.60;100805.00;5113020;27;20199;-68
2023/11/23 00:57:35;;;;;;;25.23;12.53;;;;;;;-1.95;68.56;100805.09;5113387;27;20207;-67
2023/11/23 01:00:06;;;;;;;19.13;10.10;;;;;;;-1.97;67.76;100799.94;5115473;27;20200;-67
2023/11/23 01:02:35;;;;;;;22.33;11.87;;;;;;;-1.97;68.72;100799.94;5117044;27;20577;-64
2023/11/23 01:05:06;;;;;;;19.03;11.50;;;;;;;-1.97;69.08;100806.66;5113987;27;20585;-67
2023/11/23 01:07:34;;;;;;;19.47;11.17;;;;;;;-1.96;68.95;100818.47;5113370;27;20196;-68
2023/11/23 01:10:02;;;;;;;23.70;12.47;;;;;;;-1.97;68.20;100815.09;5102653;27;20656;-70
2023/11/23 01:12:32;;;;;;;21.27;12.17;;;;;;;-1.98;67.90;100800.72;5113382;27;20198;-70
2023/11/23 01:15:00;;;;;;;22.60;12.00;;;;;;;-1.96;69.26;100801.66;5114884;27;20235;-73
2023/11/23 01:17:28;;;;;;;23.87;11.37;;;;;;;-1.93;69.23;100806.00;5121950;27;20199;-68
2023/11/23 01:19:56;;;;;;;19.17;11.87;;;;;;;-1.92;68.43;100794.25;5111744;28;20688;-66
2023/11/23 01:22:25;;;;;;;21.67;11.70;;;;;;;-1.95;69.27;100780.69;5113131;27;20196;-68
2023/11/23 01:24:54;;;;;;;19.77;12.17;;;;;;;-1.95;68.18;100785.75;5106622;28;20219;-67
2023/11/23 01:27:22;;;;;;;21.77;11.80;;;;;;;-1.94;68.40;100791.66;5104223;28;20219;-67
2023/11/23 01:29:50;;;;;;;17.23;10.60;;;;;;;-1.98;68.30;100784.72;5111326;28;20227;-65
2023/11/23 01:32:18;;;;;;;21.77;12.27;;;;;;;-2.02;68.97;100783.69;5107957;28;20650;-65
2023/11/23 01:34:46;;;;;;;20.60;12.13;;;;;;;-1.96;68.25;100778.06;5119368;27;20206;-65
2023/11/23 01:37:14;;;;;;;22.57;12.23;;;;;;;-1.97;69.45;100769.63;5111894;28;20551;-65
2023/11/23 01:39:43;;;;;;;22.87;11.50;;;;;;;-1.95;68.89;100760.50;5113490;28;20212;-65
2023/11/23 01:42:11;;;;;;;21.43;12.07;;;;;;;-1.91;68.14;100755.56;5108689;27;20674;-66
2023/11/23 01:44:39;;;;;;;23.23;12.30;;;;;;;-1.90;68.55;100742.19;5107152;28;20290;-65
2023/11/23 01:47:11;;;;;;;20.20;11.93;;;;;;;-1.87;68.20;100727.19;5097353;28;20208;-67
2023/11/23 01:49:42;;;;;;;18.90;11.20;;;;;;;-1.87;68.34;100717.06;5109675;28;20560;-68
2023/11/23 01:52:11;;;;;;;20.03;11.37;;;;;;;-1.82;68.75;100708.06;5117866;28;20562;-67
2023/11/23 01:54:39;;;;;;;17.70;10.60;;;;;;;-1.81;68.51;100692.09;5102751;28;20212;-73
2023/11/23 01:57:09;;;;;;;21.43;11.20;;;;;;;-1.84;68.80;100667.56;5112847;28;20227;-72
2023/11/23 01:59:38;;;;;;;17.40;9.67;;;;;;;-1.85;68.74;100659.91;5109293;28;20222;-72
2023/11/23 02:02:07;;;;;;;19.77;10.87;;;;;;;-1.86;68.16;100643.03;5102999;28;20203;-71
2023/11/23 02:04:35;;;;;;;18.30;11.83;;;;;;;-1.85;69.49;100630.47;5111107;28;20212;-72
2023/11/23 02:07:05;;;;;;;14.37;8.70;;;;;;;-1.87;68.28;100616.91;5131442;27;20207;-73
2023/11/23 02:09:33;;;;;;;18.50;11.20;;;;;;;-1.91;69.39;100626.78;5124719;27;20651;-70
2023/11/23 02:12:06;;;;;;;11.00;8.37;;;;;;;-1.91;69.22;100629.31;5115778;27;20945;-73
2023/11/23 02:14:36;;;;;;;19.73;11.30;;;;;;;-1.89;70.26;100637.81;5112283;27;20228;-73
2023/11/23 02:17:16;;;;;;;18.67;11.50;;;;;;;-1.90;70.29;100644.53;5126096;27;20196;-70
2023/11/23 02:19:44;;;;;;;21.83;13.07;;;;;;;-1.88;70.12;100653.03;5114975;27;20216;-72
2023/11/23 02:22:12;;;;;;;23.40;12.90;;;;;;;-1.86;68.80;100648.09;5118966;27;20284;-71
2023/11/23 02:24:43;;;;;;;25.07;11.93;;;;;;;-1.87;69.24;100627.00;5123025;27;20211;-70
2023/11/23 02:27:12;;;;;;;20.70;11.73;;;;;;;-1.87;69.46;100621.09;5113078;28;20634;-72
2023/11/23 02:29:40;;;;;;;22.40;13.80;;;;;;;-1.84;69.27;100595.97;5114804;27;20212;-73
2023/11/23 02:32:09;;;;;;;20.83;12.40;;;;;;;-1.84;70.00;100601.03;5118876;27;20218;-72
2023/11/23 02:34:39;;;;;;;19.67;11.23;;;;;;;-1.82;69.19;100604.50;5112721;27;20242;-73
2023/11/23 02:37:07;;;;;;;23.07;13.97;;;;;;;-1.85;69.18;100605.22;5110356;27;20196;-72
2023/11/23 02:39:35;;;;;;;20.57;11.23;;;;;;;-1.83;70.62;100593.53;5119895;27;21588;-72
2023/11/23 02:42:05;;;;;;;20.73;12.37;;;;;;;-1.79;70.07;100595.41;5117809;27;20211;-72
2023/11/23 02:44:35;;;;;;;17.70;10.70;;;;;;;-1.78;70.10;100587.03;5106066;27;20593;-74
2023/11/23 02:47:03;;;;;;;22.90;14.57;;;;;;;-1.80;69.77;100575.13;5119368;27;20207;-74
2023/11/23 02:49:31;;;;;;;19.37;10.77;;;;;;;-1.79;70.41;100569.28;5110679;27;20783;-72
2023/11/23 02:51:59;;;;;;;21.03;12.10;;;;;;;-1.79;69.70;100564.22;5111809;27;20289;-73
2023/11/23 02:54:28;;;;;;;19.73;10.23;;;;;;;-1.82;70.37;100551.47;5120316;27;20196;-70
2023/11/23 02:56:58;;;;;;;22.83;12.83;;;;;;;-1.82;71.31;100542.22;5115866;27;20208;-69
2023/11/23 02:59:27;;;;;;;22.97;12.23;;;;;;;-1.85;71.16;100531.09;5113624;27;20604;-69
2023/11/23 03:01:55;;;;;;;19.83;12.13;;;;;;;-1.79;70.92;100523.81;5115092;27;20222;-69
2023/11/23 03:04:23;;;;;;;22.30;13.93;;;;;;;-1.81;70.78;100520.34;5119729;27;20253;-69
2023/11/23 03:06:51;;;;;;;21.83;11.23;;;;;;;-1.77;71.10;100504.53;5114004;27;20702;-68
2023/11/23 03:09:19;;;;;;;22.97;13.33;;;;;;;-1.80;70.48;100497.69;5106378;27;20226;-69
2023/11/23 03:11:47;;;;;;;24.50;13.30;;;;;;;-1.81;71.86;100470.69;5117185;27;20279;-69
2023/11/23 03:14:16;;;;;;;21.63;12.50;;;;;;;-1.78;71.07;100469.97;5114390;27;20295;-69
2023/11/23 03:16:45;;;;;;;24.77;14.03;;;;;;;-1.79;71.72;100463.19;5113755;27;20272;-69
2023/11/23 03:19:14;;;;;;;20.60;13.20;;;;;;;-1.79;71.32;100445.53;5119324;27;20199;-70
2023/11/23 03:21:43;;;;;;;23.23;13.03;;;;;;;-1.78;71.76;100424.50;5113484;27;20684;-70
2023/11/23 03:24:11;;;;;;;22.47;14.07;;;;;;;-1.74;71.20;100421.31;5116184;27;20216;-68
2023/11/23 03:26:39;;;;;;;22.23;12.87;;;;;;;-1.74;71.94;100413.75;5113985;27;20696;-68
2023/11/23 03:29:06;;;;;;;18.10;10.37;;;;;;;-1.71;71.47;100411.34;5116510;27;20573;-70
2023/11/23 03:31:35;;;;;;;18.13;12.33;;;;;;;-1.73;71.49;100395.25;5114361;27;20200;-70
2023/11/23 03:34:04;;;;;;;18.27;10.87;;;;;;;-1.66;72.17;100399.78;5120977;27;20677;-67
2023/11/23 03:36:32;;;;;;;22.07;14.03;;;;;;;-1.67;71.30;100379.50;5115261;27;20604;-69
2023/11/23 03:39:00;;;;;;;28.27;15.40;;;;;;;-1.68;72.70;100373.59;5115051;27;20235;-68
2023/11/23 03:41:28;;;;;;;21.33;13.40;;;;;;;-1.65;71.89;100362.78;5115116;27;20200;-69
2023/11/23 03:43:57;;;;;;;24.53;14.30;;;;;;;-1.64;72.65;100357.78;5123761;27;20208;-70
2023/11/23 03:46:26;;;;;;;23.70;13.90;;;;;;;-1.65;72.71;100365.28;5107176;28;20224;-70
2023/11/23 03:48:56;;;;;;;24.03;15.00;;;;;;;-1.64;72.36;100352.72;5116420;27;20634;-70
2023/11/23 03:51:26;;;;;;;25.13;13.73;;;;;;;-1.63;72.96;100329.16;5117590;27;20647;-70
2023/11/23 03:53:54;;;;;;;22.83;12.47;;;;;;;-1.62;73.42;100317.41;5116955;27;20204;-72
2023/11/23 03:56:22;;;;;;;22.57;13.27;;;;;;;-1.61;72.67;100307.38;5113658;27;20234;-70
2023/11/23 03:58:50;;;;;;;23.03;14.30;;;;;;;-1.60;73.44;100301.50;5115452;27;20200;-71
2023/11/23 04:01:18;;;;;;;28.03;16.13;;;;;;;-1.62;73.59;100295.56;5112057;27;20195;-69
2023/11/23 04:03:46;;;;;;;24.87;13.70;;;;;;;-1.56;74.13;100282.28;5116230;27;20218;-71
2023/11/23 04:06:14;;;;;;;21.33;13.77;;;;;;;-1.54;73.26;100286.63;5119885;27;20211;-70
2023/11/23 04:08:44;;;;;;;23.57;13.70;;;;;;;-1.49;72.93;100271.63;5106857;27;20286;-70
2023/11/23 04:11:12;;;;;;;23.53;14.40;;;;;;;-1.49;73.22;100272.50;5111768;27;20668;-70
2023/11/23 04:13:40;;;;;;;22.63;14.03;;;;;;;-1.47;73.25;100254.88;5114712;27;20211;-70
2023/11/23 04:16:09;;;;;;;23.80;14.10;;;;;;;-1.47;74.58;100245.63;5109081;27;20740;-65
2023/11/23 04:18:41;;;;;;;22.20;13.57;;;;;;;-1.47;74.05;100235.53;5113742;27;20207;-64
2023/11/23 04:21:10;;;;;;;24.63;14.07;;;;;;;-1.44;74.07;100218.75;5113309;27;20227;-64
2023/11/23 04:23:38;;;;;;;23.30;14.10;;;;;;;-1.41;74.30;100213.81;5114000;27;20200;-65
2023/11/23 04:26:09;;;;;;;20.30;12.43;;;;;;;-1.41;74.97;100206.22;5121418;27;20260;-64
2023/11/23 04:28:38;;;;;;;22.33;13.67;;;;;;;-1.39;74.05;100209.69;5110642;27;20239;-65
2023/11/23 04:31:06;;;;;;;20.40;11.67;;;;;;;-1.37;74.66;100201.34;5111897;27;20211;-64
2023/11/23 04:33:34;;;;;;;19.60;12.40;;;;;;;-1.36;74.85;100185.41;5117043;27;20200;-65
2023/11/23 04:36:04;;;;;;;25.77;13.40;;;;;;;-1.36;74.78;100172.78;5113835;27;20293;-68
2023/11/23 04:38:32;;;;;;;24.07;13.87;;;;;;;-1.31;74.86;100165.34;5106851;27;20231;-65
2023/11/23 04:41:01;;;;;;;20.30;11.70;;;;;;;-1.25;74.77;100168.13;5119597;27;20577;-65
2023/11/23 04:43:31;;;;;;;21.07;13.97;;;;;;;-1.27;74.75;100152.03;5117873;27;20729;-65
2023/11/23 04:45:58;;;;;;;23.30;13.80;;;;;;;-1.26;75.04;100139.44;5113466;27;20211;-65
2023/11/23 04:48:27;;;;;;;22.87;13.23;;;;;;;-1.27;74.65;100132.66;5099142;27;20658;-66
2023/11/23 04:50:54;;;;;;;17.03;11.07;;;;;;;-1.26;75.51;100128.47;5111163;27;20215;-63
2023/11/23 04:53:23;;;;;;;15.73;9.57;;;;;;;-1.18;75.16;100116.97;5111136;27;20282;-63
2023/11/23 04:55:51;;;;;;;22.40;13.30;;;;;;;-1.19;75.84;100104.28;5115885;27;20527;-64
2023/11/23 04:58:19;;;;;;;21.00;13.50;;;;;;;-1.14;75.02;100116.28;5112529;27;20200;-67
2023/11/23 05:00:53;;;;;;;22.23;13.17;;;;;;;-1.14;75.54;100096.06;5120561;27;20711;-65
2023/11/23 05:03:21;;;;;;;16.63;10.03;;;;;;;-1.09;75.49;100086.97;5095424;28;20207;-65
2023/11/23 05:05:49;;;;;;;20.70;12.33;;;;;;;-1.09;75.69;100074.31;5109357;27;20218;-65
2023/11/23 05:08:17;;;;;;;17.87;11.73;;;;;;;-1.08;76.40;100070.97;5104780;27;20204;-66
2023/11/23 05:10:45;;;;;;;19.40;11.67;;;;;;;-1.06;76.92;100073.59;5116989;27;20200;-67
2023/11/23 05:13:13;;;;;;;18.83;9.97;;;;;;;-1.04;76.38;100066.91;5115816;27;20708;-68
2023/11/23 05:15:41;;;;;;;21.33;12.57;;;;;;;-1.04;76.37;100069.44;5115437;27;20788;-65
2023/11/23 05:18:10;;;;;;;23.37;13.40;;;;;;;-0.97;76.37;100071.38;5119924;27;20194;-70
2023/11/23 05:20:38;;;;;;;22.67;11.97;;;;;;;-0.94;76.97;100050.38;5116254;27;20211;-69
2023/11/23 05:23:06;;;;;;;18.53;11.87;;;;;;;-0.90;77.56;100040.44;5111652;28;20203;-70
2023/11/23 05:25:34;;;;;;;16.40;11.43;;;;;;;-0.93;78.35;100031.88;5114038;27;20223;-70
2023/11/23 05:28:02;;;;;;;17.90;11.97;;;;;;;-0.90;78.58;100026.91;5112816;28;20211;-63
2023/11/23 05:30:32;;;;;;;19.37;11.20;;;;;;;-0.89;78.83;100016.00;5110025;28;20203;-67
2023/11/23 05:33:01;;;;;;;19.20;10.43;;;;;;;-0.91;79.16;100017.63;5109502;28;20208;-68
2023/11/23 05:35:30;;;;;;;19.77;12.43;;;;;;;-0.88;79.32;100000.03;5103137;27;20655;-68
2023/11/23 05:37:59;;;;;;;18.57;11.37;;;;;;;-0.89;80.63;99967.94;5113436;28;20256;-70
2023/11/23 05:40:26;;;;;;;18.03;10.77;;;;;;;-0.88;80.84;99969.69;5105959;27;20204;-69
2023/11/23 05:42:54;;;;;;;23.83;13.63;;;;;;;-0.88;80.83;99968.00;5117943;27;20587;-69
2023/11/23 05:45:33;;;;;;;18.30;11.17;;;;;;;-0.85;81.05;99957.09;5120621;27;20222;-68
2023/11/23 05:48:02;;;;;;;16.40;10.57;;;;;;;-0.89;83.02;99958.66;5126985;27;20589;-69
2023/11/23 05:50:31;;;;;;;21.20;13.03;;;;;;;-0.88;83.34;99942.72;5123748;27;20820;-70
2023/11/23 05:52:59;;;;;;;18.63;11.10;;;;;;;-0.86;84.00;99947.81;5106692;27;20196;-68
2023/11/23 05:55:27;;;;;;;19.13;11.13;;;;;;;-0.87;82.97;99931.78;5123179;27;20212;-69
2023/11/23 05:57:56;;;;;;;18.80;11.47;;;;;;;-0.85;83.54;99924.22;5117211;27;20229;-71
2023/11/23 06:00:24;;;;;;;20.00;12.20;;;;;;;-0.82;83.74;99929.38;5125222;27;20199;-71
2023/11/23 06:02:52;;;;;;;20.07;12.10;;;;;;;-0.88;84.53;99894.66;5103200;27;20195;-65
2023/11/23 06:05:21;;;;;;;19.43;12.67;;;;;;;-0.84;84.53;99931.88;5115210;28;20200;-71
2023/11/23 06:07:51;;;;;;;21.73;12.30;;;;;;;-0.84;85.26;99900.69;5113872;27;20597;-72
2023/11/23 06:10:20;;;;;;;19.07;11.07;;;;;;;-0.84;85.49;99899.00;5115309;27;20215;-72
2023/11/23 06:12:48;;;;;;;20.83;11.80;;;;;;;-0.78;85.10;99889.06;5116118;27;20670;-70
2023/11/23 06:15:16;;;;;;;19.47;12.20;;;;;;;-0.79;85.52;99891.56;5111387;27;20247;-70
2023/11/23 06:17:44;;;;;;;20.57;11.90;;;;;;;-0.74;84.93;99875.72;5119275;27;20589;-72
2023/11/23 06:20:14;;;;;;;20.33;11.53;;;;;;;-0.70;85.34;99874.13;5115938;27;20193;-70
2023/11/23 06:22:42;;;;;;;21.53;13.30;;;;;;;-0.68;85.58;99854.78;5124211;27;20234;-73
2023/11/23 06:25:12;;;;;;;21.20;12.90;;;;;;;-0.68;85.99;99849.72;5115977;27;20654;-69
2023/11/23 06:27:40;;;;;;;20.87;12.03;;;;;;;-0.66;85.15;99855.72;5118613;27;20576;-70
2023/11/23 06:30:09;;;;;;;20.87;11.80;;;;;;;-0.63;86.15;99860.84;5114025;27;20203;-74
2023/11/23 06:32:37;;;;;;;19.07;10.03;;;;;;;-0.58;85.62;99856.78;5112081;27;20202;-73
2023/11/23 06:35:06;;;;;;;18.27;10.70;;;;;;;-0.55;85.36;99854.34;5110800;27;20204;-72
2023/11/23 06:37:34;;;;;;;19.33;11.07;;;;;;;-0.53;85.10;99846.81;5118720;27;20565;-75
2023/11/23 06:40:03;;;;;;;20.90;11.87;;;;;;;-0.46;85.44;99846.16;5114795;28;20227;-72
2023/11/23 06:42:33;;;;;;;20.50;11.30;;;;;;;-0.45;84.49;99839.44;5122911;27;20195;-73
2023/11/23 06:45:05;;;;;;;19.37;11.20;;;;;;;-0.40;85.13;99832.84;5118743;27;20208;-74
2023/11/23 06:47:33;;;;;;;18.37;11.00;;;;;;;-0.34;85.52;99833.00;5119486;27;20215;-67
2023/11/23 06:50:02;;;;;;;18.80;10.37;;;;;;;-0.33;85.17;99811.94;5111358;27;20227;-66
2023/11/23 06:52:30;;;;;;;18.77;11.03;;;;;;;-0.29;85.36;99821.34;5108422;27;20548;-65
2023/11/23 06:54:58;;;;;;;22.77;12.63;;;;;;;-0.30;85.81;99799.38;5111821;27;20206;-68
2023/11/23 06:57:27;;;;;;;20.03;11.20;;;;;;;-0.26;86.33;99797.00;5112985;27;20651;-71
2023/11/23 06:59:58;;;;;;;17.33;9.60;;;;;;;-0.21;86.40;99806.38;5116750;27;20286;-70
2023/11/23 07:02:28;;;;;;;18.17;10.23;;;;;;;-0.26;87.58;99786.88;5114483;27;20232;-73
2023/11/23 07:04:56;;;;;;;19.40;12.03;;;;;;;-0.22;88.19;99792.88;5108153;27;20211;-73
2023/11/23 07:07:24;;;;;;;16.63;9.27;;;;;;;-0.25;88.58;99780.97;5114866;27;20225;-70
2023/11/23 07:09:53;;;;;;;17.47;9.23;;;;;;;-0.22;89.39;99776.78;5111596;27;20209;-71
2023/11/23 07:12:21;;;;;;;18.23;10.00;;;;;;;-0.20;89.62;99767.56;5115172;27;20203;-73
2023/11/23 07:14:50;;;;;;;15.90;10.00;;;;;;;-0.26;90.58;99748.00;5115678;27;20674;-71
2023/11/23 07:17:20;;;;;;;18.50;11.53;;;;;;;-0.19;91.23;99757.47;5119390;27;20274;-70
2023/11/23 07:19:49;;;;;;;17.10;10.17;;;;;;;-0.17;91.34;99772.72;5120174;27;20622;-75
2023/11/23 07:22:17;;;;;;;18.73;11.13;;;;;;;-0.13;91.54;99734.88;5107874;27;20196;-70
2023/11/23 07:24:45;;;;;;;14.90;9.53;;;;;;;-0.10;91.85;99745.06;5115063;27;20248;-72
2023/11/23 07:27:13;;;;;;;16.83;8.63;;;;;;;-0.09;92.16;99739.19;5117678;27;20218;-71
2023/11/23 07:29:42;;;;;;;18.83;10.83;;;;;;;-0.10;92.63;99722.28;5115279;27;20265;-71
2023/11/23 07:32:14;;;;;;;16.87;10.13;;;;;;;-0.08;92.39;99715.56;5116068;27;20218;-72
2023/11/23 07:34:44;;;;;;;16.63;8.87;;;;;;;-0.05;93.59;99728.31;5116777;27;20193;-72
2023/11/23 07:37:12;;;;;;;16.87;10.27;;;;;;;0.01;92.99;99714.13;5122146;27;20200;-70
2023/11/23 07:39:40;;;;;;;16.73;9.90;;;;;;;0.02;92.82;99704.00;5117921;27;20200;-73
2023/11/23 07:42:07;;;;;;;14.67;8.70;;;;;;;0.08;93.17;99705.84;5115431;27;20202;-73
2023/11/23 07:44:35;;;;;;;20.67;11.43;;;;;;;0.14;93.44;99685.72;5106616;27;20290;-73
2023/11/23 07:47:04;;;;;;;16.60;10.80;;;;;;;0.15;93.21;99707.72;5107589;27;20222;-71
2023/11/23 07:49:32;;;;;;;15.53;9.33;;;;;;;0.20;93.24;99703.63;5104061;27;20691;-72
2023/11/23 07:52:01;;;;;;;16.17;9.67;;;;;;;0.22;93.14;99700.31;5105356;27;20203;-72
2023/11/23 07:54:29;;;;;;;14.20;8.37;;;;;;;0.24;93.57;99683.44;5105263;27;20304;-73
2023/11/23 07:56:57;;;;;;;16.03;10.23;;;;;;;0.25;93.73;99704.56;5103863;27;20199;-71
2023/11/23 07:59:25;;;;;;;15.87;9.77;;;;;;;0.20;93.81;99670.69;5117966;27;20255;-69
2023/11/23 08:01:55;;;;;;;16.00;8.70;;;;;;;0.28;93.97;99666.66;5112799;27;20212;-71
2023/11/23 08:04:24;;;;;;;11.97;7.30;;;;;;;0.29;94.35;99665.81;5099420;27;20299;-68
2023/11/23 08:06:52;;;;;;;18.80;9.97;;;;;;;0.34;94.07;99654.13;5112824;27;20204;-76
2023/11/23 08:09:21;;;;;;;18.03;8.80;;;;;;;0.37;94.32;99644.06;5117179;27;20649;-73
2023/11/23 08:11:52;;;;;;;17.10;9.23;;;;;;;0.43;94.57;99648.41;5112814;27;20206;-69
2023/11/23 08:14:22;;;;;;;12.97;8.00;;;;;;;0.44;93.79;99625.66;5100221;27;20838;-65
2023/11/23 08:16:52;;;;;;;14.57;8.13;;;;;;;0.46;94.26;99623.13;5116136;27;20662;-68
2023/11/23 08:19:21;;;;;;;13.23;8.43;;;;;;;0.48;94.39;99635.03;5117582;27;20610;-65
2023/11/23 08:21:51;;;;;;;14.23;8.10;;;;;;;0.52;94.77;99657.91;5118335;27;20253;-67
2023/11/23 08:24:19;;;;;;;12.50;8.53;;;;;;;0.53;94.60;99624.97;5118901;27;20206;-67
2023/11/23 08:26:48;;;;;;;13.37;8.23;;;;;;;0.55;94.78;99612.31;5114162;27;20199;-72
2023/11/23 08:29:16;;;;;;;12.37;7.53;;;;;;;0.58;94.48;99642.81;5105617;27;20310;-67
2023/11/23 08:31:45;;;;;;;12.93;8.60;;;;;;;0.61;94.63;99635.28;5103701;28;20755;-67
2023/11/23 08:34:13;;;;;;;14.27;9.10;;;;;;;0.63;94.54;99619.28;5100626;27;20207;-69
2023/11/23 08:36:41;;;;;;;10.93;7.07;;;;;;;0.68;94.31;99637.13;5111600;27;20200;-71
2023/11/23 08:39:12;;;;;;;11.97;6.73;;;;;;;0.69;95.11;99637.16;5111988;27;20211;-70
2023/11/23 08:41:41;;;;;;;13.17;7.13;;;;;;;0.70;94.59;99617.72;5110713;27;20200;-65
2023/11/23 08:44:10;;;;;;;12.77;8.27;;;;;;;0.75;95.10;99610.22;5111412;27;20686;-72
2023/11/23 08:46:41;;;;;;;14.53;7.90;;;;;;;0.81;95.03;99621.38;5111897;27;20666;-70
2023/11/23 08:49:10;;;;;;;10.30;7.07;;;;;;;0.85;96.14;99607.06;5116372;27;20230;-71
2023/11/23 08:51:39;;;;;;;10.33;6.20;;;;;;;0.86;95.74;99619.75;5114632;27;20275;-69
2023/11/23 08:54:10;;;;;;;12.47;7.53;;;;;;;0.90;94.93;99590.25;5112502;27;20214;-72
2023/11/23 08:56:38;;;;;;;9.57;6.13;;;;;;;0.93;95.44;99601.31;5113667;27;20666;-74
2023/11/23 08:59:07;;;;;;;11.27;6.30;;;;;;;0.95;95.07;99589.50;5110549;27;20552;-73
2023/11/23 09:01:36;;;;;;;11.33;5.57;;;;;;;0.89;95.93;99564.03;5110186;27;20650;-71
2023/11/23 09:04:08;;;;;;;11.40;6.80;;;;;;;0.98;95.86;99547.28;5098462;27;20196;-71
2023/11/23 09:06:37;;;;;;;8.63;5.73;;;;;;;1.03;95.80;99560.88;5107274;27;20204;-71
2023/11/23 09:09:05;;;;;;;8.60;5.00;;;;;;;1.01;95.77;99558.34;5103798;27;20346;-69
2023/11/23 09:11:34;;;;;;;7.70;5.27;;;;;;;1.01;96.29;99532.97;5108924;27;20540;-70
2023/11/23 09:14:03;;;;;;;10.10;6.13;;;;;;;1.07;96.33;99525.47;5109480;27;20210;-67
2023/11/23 09:16:31;;;;;;;9.50;6.27;;;;;;;1.08;96.41;99524.66;5107657;27;20225;-70
2023/11/23 09:19:01;;;;;;;10.83;6.63;;;;;;;1.08;96.72;99521.25;5106051;28;20216;-69
2023/11/23 09:21:29;;;;;;;10.70;6.67;;;;;;;1.11;96.70;99518.78;5109484;27;20237;-72
2023/11/23 09:23:57;;;;;;;12.23;6.37;;;;;;;1.11;97.42;99526.41;5107859;27;20290;-71
2023/11/23 09:26:25;;;;;;;10.10;7.17;;;;;;;1.12;96.84;99495.97;5105496;27;20734;-70
2023/11/23 09:28:53;;;;;;;15.67;8.93;;;;;;;1.14;97.02;99490.91;5105756;28;20223;-67
2023/11/23 09:31:22;;;;;;;11.40;7.50;;;;;;;1.18;97.37;99474.94;5110183;28;20576;-69
2023/11/23 09:33:52;;;;;;;13.63;8.70;;;;;;;1.20;96.56;99474.09;5099203;28;20212;-66
2023/11/23 09:36:21;;;;;;;9.57;6.33;;;;;;;1.21;96.90;99467.34;5106146;28;20203;-68
2023/11/23 09:38:49;;;;;;;15.60;8.83;;;;;;;1.25;97.01;99468.25;5098054;28;20208;-67
2023/11/23 09:41:18;;;;;;;12.03;8.23;;;;;;;1.28;97.04;99476.78;5109660;28;20714;-70
2023/11/23 09:43:48;;;;;;;13.97;9.00;;;;;;;1.30;97.13;99454.81;5109147;28;20212;-66
2023/11/23 09:46:16;;;;;;;11.53;5.90;;;;;;;1.37;96.71;99461.72;5102238;28;20209;-67
2023/11/23 09:48:45;;;;;;;16.83;9.33;;;;;;;1.40;96.19;99445.66;5111644;28;20651;-65
2023/11/23 09:51:14;;;;;;;15.23;9.63;;;;;;;1.45;96.37;99461.81;5109643;28;20195;-74
2023/11/23 09:53:44;;;;;;;14.03;9.00;;;;;;;1.44;95.66;99453.38;5116234;28;20203;-78
2023/11/23 09:56:15;;;;;;;15.40;9.30;;;;;;;1.49;96.50;99444.97;5112441;28;20583;-70
2023/11/23 09:58:44;;;;;;;14.17;8.43;;;;;;;1.55;95.52;99456.06;5102964;28;20196;-73
2023/11/23 10:01:12;;;;;;;11.50;7.67;;;;;;;1.57;96.40;99448.47;5096008;28;20201;-73
2023/11/23 10:03:48;;;;;;;13.17;8.23;;;;;;;1.59;95.66;99434.13;5112509;28;20574;-72
2023/11/23 10:06:17;;;;;;;13.33;8.03;;;;;;;1.64;96.36;99438.41;5111411;28;20207;-69
2023/11/23 10:08:47;;;;;;;12.80;8.10;;;;;;;1.69;96.78;99397.84;5109871;28;20236;-68
2023/11/23 10:11:15;;;;;;;14.57;9.03;;;;;;;1.73;95.24;99408.91;5113168;28;20639;-71
2023/11/23 10:13:43;;;;;;;13.77;8.50;;;;;;;1.78;95.78;99409.84;5107296;28;20577;-72
2023/11/23 10:16:12;;;;;;;19.73;11.27;;;;;;;1.81;96.03;99403.09;5108561;28;20499;-73
2023/11/23 10:18:42;;;;;;;15.27;9.77;;;;;;;1.84;96.13;99405.69;5110259;28;20543;-72
2023/11/23 10:21:12;;;;;;;13.40;8.93;;;;;;;1.88;96.41;99417.59;5104945;28;20208;-73
2023/11/23 10:23:43;;;;;;;12.90;8.03;;;;;;;1.90;96.39;99372.72;5112884;28;20695;-73
2023/11/23 10:26:12;;;;;;;17.93;10.53;;;;;;;2.02;95.89;99376.25;5115015;27;20204;-73
2023/11/23 10:28:41;;;;;;;17.60;10.03;;;;;;;2.07;95.90;99367.00;5106966;27;20854;-72
2023/11/23 10:31:09;;;;;;;16.40;10.17;;;;;;;2.09;95.48;99357.69;5109848;27;20229;-73
2023/11/23 10:33:42;;;;;;;13.97;9.17;;;;;;;2.12;95.62;99360.28;5116397;27;20207;-72
2023/11/23 10:36:11;;;;;;;17.93;10.43;;;;;;;2.18;96.10;99357.81;5113886;27;20332;-73
2023/11/23 10:38:40;;;;;;;16.60;10.07;;;;;;;2.24;96.26;99367.19;5104193;27;20699;-73
2023/11/23 10:41:14;;;;;;;11.37;7.20;;;;;;;2.27;95.88;99354.50;5116892;27;20211;-71
2023/11/23 10:43:45;;;;;;;15.13;8.63;;;;;;;2.32;95.96;99353.75;5113413;27;20255;-72
2023/11/23 10:46:14;;;;;;;14.60;9.53;;;;;;;2.38;95.81;99336.00;5109853;27;20247;-73
2023/11/23 10:48:45;;;;;;;15.83;10.27;;;;;;;2.42;96.59;99332.63;5107083;27;20212;-73
2023/11/23 10:51:15;;;;;;;14.33;9.03;;;;;;;2.46;96.55;99340.28;5103493;28;20215;-69
2023/11/23 10:53:46;;;;;;;13.43;8.70;;;;;;;2.47;95.71;99337.78;5105553;27;20201;-74
2023/11/23 10:56:20;;;;;;;15.73;10.17;;;;;;;2.46;95.70;99342.84;5102579;27;20276;-69
2023/11/23 10:58:54;;;;;;;14.87;9.20;;;;;;;2.51;95.25;99331.91;5110273;27;20291;-67
2023/11/23 11:01:24;;;;;;;13.03;8.63;;;;;;;2.50;94.82;99319.16;5110490;27;20672;-67
2023/11/23 11:03:53;;;;;;;16.17;8.83;;;;;;;2.51;95.37;99323.41;5110018;27;20707;-68
2023/11/23 11:06:39;;;;;;;17.77;10.73;;;;;;;2.52;96.13;99309.84;5118883;27;20604;-71
2023/11/23 11:09:14;;;;;;;16.67;10.37;;;;;;;2.57;96.73;99310.72;5117207;27;20667;-65
2023/11/23 11:11:45;;;;;;;13.60;8.33;;;;;;;2.59;95.86;99320.09;5117735;27;20674;-64
2023/11/23 11:14:16;;;;;;;15.83;10.40;;;;;;;2.61;95.43;99276.84;5109400;27;20203;-65
2023/11/23 11:16:44;;;;;;;14.53;9.43;;;;;;;2.64;96.19;99280.28;5113880;27;20203;-75
2023/11/23 11:19:16;;;;;;;14.03;8.57;;;;;;;2.67;96.66;99282.00;5106735;27;20275;-68
2023/11/23 11:21:46;;;;;;;12.80;8.73;;;;;;;2.72;95.96;99290.50;5113984;27;20227;-66
2023/11/23 11:24:19;;;;;;;13.73;9.20;;;;;;;2.73;95.27;99314.28;5117699;27;20284;-72
2023/11/23 11:26:49;;;;;;;8.30;6.03;;;;;;;2.74;97.11;99282.91;5122504;27;20199;-70